Time;durP1;ratioP1;P1;durP2;ratioP2;P2;SDS_P1;SDS_P2;PMS_P1;PMS_P2;Temp;Humidity;BMP_temperature;BMP_pressure;BME280_temperature;BME280_humidity;BME280_pressure;Samples;Min_cycle;Max_cycle;Signal;HPM_P1;HPM_P2
2022/07/15 00:02:26;;;;;;;3.65;2.22;;;18.70;99.90;;;;;;4976179;28;20209;-79
2022/07/15 00:04:53;;;;;;;6.25;2.58;;;18.70;99.90;;;;;;4978321;28;20563;-79
2022/07/15 00:07:21;;;;;;;3.65;2.45;;;18.80;99.90;;;;;;4976329;28;20217;-79
2022/07/15 00:10:20;;;;;;;4.32;2.20;;;18.80;99.90;;;;;;4973383;28;20221;-79
2022/07/15 00:12:51;;;;;;;3.97;2.13;;;18.80;99.90;;;;;;4953843;28;20205;-79
2022/07/15 00:15:20;;;;;;;5.45;2.28;;;18.70;99.90;;;;;;4954151;28;20200;-79
2022/07/15 00:17:49;;;;;;;4.60;2.47;;;18.70;99.90;;;;;;4960256;28;20609;-79
2022/07/15 00:20:17;;;;;;;4.20;2.17;;;18.70;99.90;;;;;;4957274;28;20208;-79
2022/07/15 00:22:45;;;;;;;3.55;2.20;;;18.60;99.90;;;;;;4977538;28;20212;-79
2022/07/15 00:25:14;;;;;;;6.38;2.67;;;18.60;99.90;;;;;;4960138;28;20213;-79
2022/07/15 00:27:53;;;;;;;3.95;2.13;;;18.40;99.90;;;;;;4976181;28;20250;-79
2022/07/15 00:30:22;;;;;;;4.18;2.10;;;18.40;99.90;;;;;;4955409;28;20572;-79
2022/07/15 00:32:50;;;;;;;4.50;2.38;;;18.30;99.90;;;;;;4959366;28;20554;-79
2022/07/15 00:35:18;;;;;;;4.20;2.33;;;18.50;99.90;;;;;;4976247;28;20209;-79
2022/07/15 00:37:46;;;;;;;4.72;2.30;;;18.50;99.90;;;;;;4960364;28;20225;-79
2022/07/15 00:40:13;;;;;;;6.55;2.05;;;18.30;99.90;;;;;;4957193;28;20201;-79
2022/07/15 00:42:46;;;;;;;3.85;2.47;;;18.20;99.90;;;;;;4975214;28;20239;-79
2022/07/15 00:45:18;;;;;;;7.10;2.80;;;18.10;99.90;;;;;;4973097;28;20193;-79
2022/07/15 00:47:46;;;;;;;5.90;2.53;;;18.30;99.90;;;;;;4959473;28;20227;-79
2022/07/15 00:50:16;;;;;;;4.05;2.45;;;18.20;99.90;;;;;;4976872;28;20683;-79
2022/07/15 00:52:55;;;;;;;5.68;2.63;;;18.20;99.90;;;;;;4959273;28;20211;-79
2022/07/15 00:55:24;;;;;;;7.85;2.90;;;18.30;99.90;;;;;;4958563;28;20212;-79
2022/07/15 00:57:57;;;;;;;4.60;3.00;;;18.10;99.90;;;;;;4956129;28;20217;-79
2022/07/15 01:00:26;;;;;;;5.95;2.80;;;18.20;99.90;;;;;;4972372;28;20201;-79
2022/07/15 01:02:55;;;;;;;4.90;2.38;;;18.20;99.90;;;;;;4956066;28;20208;-79
2022/07/15 01:05:23;;;;;;;5.88;2.85;;;18.10;99.90;;;;;;4959347;28;20587;-79
2022/07/15 01:07:51;;;;;;;4.63;2.47;;;18.00;99.90;;;;;;4971591;28;20587;-79
2022/07/15 01:10:19;;;;;;;7.78;2.88;;;18.10;99.90;;;;;;4959069;28;20232;-79
2022/07/15 01:12:47;;;;;;;6.15;2.30;;;18.10;99.90;;;;;;4963985;28;20209;-79
2022/07/15 01:15:16;;;;;;;4.43;2.42;;;18.00;99.90;;;;;;4974974;28;20208;-79
2022/07/15 01:17:46;;;;;;;5.93;2.53;;;17.80;99.90;;;;;;4958245;28;20228;-79
2022/07/15 01:20:16;;;;;;;7.60;3.28;;;18.20;99.90;;;;;;4958888;28;20193;-79
2022/07/15 01:23:00;;;;;;;6.22;3.00;;;18.10;99.90;;;;;;4958556;28;20209;-79
2022/07/15 01:25:42;;;;;;;5.55;2.40;;;18.00;99.90;;;;;;4962446;28;20217;-79
2022/07/15 01:28:13;;;;;;;5.38;2.65;;;17.90;99.90;;;;;;4951154;29;20209;-79
2022/07/15 01:30:41;;;;;;;4.28;2.30;;;18.00;99.90;;;;;;4970117;28;20214;-79
2022/07/15 01:33:13;;;;;;;6.85;2.28;;;18.10;99.90;;;;;;4946777;28;20204;-79
2022/07/15 01:35:41;;;;;;;5.85;2.45;;;18.20;99.90;;;;;;4952094;28;20209;-79
2022/07/15 01:38:12;;;;;;;4.43;2.30;;;18.30;99.90;;;;;;4952801;28;20197;-79
2022/07/15 01:40:41;;;;;;;5.32;2.17;;;18.10;99.90;;;;;;4958895;28;20196;-79
2022/07/15 01:43:09;;;;;;;5.93;2.92;;;18.00;99.90;;;;;;4974616;28;20200;-79
2022/07/15 01:45:36;;;;;;;5.65;2.53;;;17.90;99.90;;;;;;4957358;28;20575;-79
2022/07/15 01:48:05;;;;;;;5.60;2.55;;;17.90;99.90;;;;;;4958432;28;20201;-79
2022/07/15 01:50:48;;;;;;;5.80;2.67;;;17.70;99.90;;;;;;4973164;28;20240;-79
2022/07/15 01:53:21;;;;;;;4.40;2.38;;;17.70;99.90;;;;;;4974367;28;20635;-79
2022/07/15 01:55:49;;;;;;;5.47;2.30;;;18.00;99.90;;;;;;4958346;28;20216;-79
2022/07/15 01:58:17;;;;;;;4.45;2.83;;;18.00;99.90;;;;;;4943708;29;20206;-79
2022/07/15 02:00:45;;;;;;;4.97;2.47;;;18.00;99.90;;;;;;4967326;28;20984;-79
2022/07/15 02:03:13;;;;;;;7.18;2.58;;;18.10;99.90;;;;;;4958191;28;20201;-79
2022/07/15 02:05:41;;;;;;;7.63;2.50;;;17.60;99.90;;;;;;4958457;28;20208;-79
2022/07/15 02:08:08;;;;;;;4.63;2.33;;;17.40;99.90;;;;;;4957400;28;20265;-79
2022/07/15 02:10:40;;;;;;;3.90;2.90;;;17.40;99.90;;;;;;4957418;28;20236;-79
2022/07/15 02:13:15;;;;;;;5.20;2.80;;;17.60;99.90;;;;;;4955942;28;20219;-79
2022/07/15 02:15:48;;;;;;;6.07;2.42;;;17.50;99.90;;;;;;4967190;28;20212;-79
2022/07/15 02:18:16;;;;;;;5.80;2.63;;;17.40;99.90;;;;;;4973945;28;20572;-79
2022/07/15 02:20:43;;;;;;;7.05;2.55;;;17.30;99.90;;;;;;4973420;28;20659;-79
2022/07/15 02:23:11;;;;;;;3.90;2.40;;;17.50;99.90;;;;;;4958003;28;20201;-79
2022/07/15 02:25:40;;;;;;;3.67;2.72;;;17.60;99.90;;;;;;4957966;28;20212;-79
2022/07/15 02:28:09;;;;;;;5.80;2.78;;;17.60;99.90;;;;;;4972106;28;20292;-79
2022/07/15 02:30:39;;;;;;;4.65;3.00;;;17.50;99.90;;;;;;4970782;28;20221;-79
2022/07/15 02:33:08;;;;;;;5.50;2.60;;;17.40;99.90;;;;;;4951896;28;20205;-79
2022/07/15 02:35:36;;;;;;;4.95;2.75;;;17.30;99.90;;;;;;4954466;28;20201;-79
2022/07/15 02:38:06;;;;;;;4.72;2.55;;;17.20;99.90;;;;;;4957906;28;20212;-79
2022/07/15 02:40:34;;;;;;;4.22;3.10;;;17.40;99.90;;;;;;4956742;28;20212;-79
2022/07/15 02:43:04;;;;;;;4.55;2.63;;;17.20;99.90;;;;;;4957856;28;20206;-79
2022/07/15 02:45:36;;;;;;;5.85;2.65;;;17.20;99.90;;;;;;4957327;28;20224;-79
2022/07/15 02:48:07;;;;;;;5.90;2.60;;;17.40;99.90;;;;;;4957707;28;20201;-79
2022/07/15 02:50:38;;;;;;;8.20;3.20;;;17.40;99.90;;;;;;4957042;28;20228;-79
2022/07/15 02:53:06;;;;;;;7.95;2.63;;;17.10;99.90;;;;;;4948752;29;20197;-79
2022/07/15 02:56:06;;;;;;;6.45;2.58;;;17.00;99.90;;;;;;4943436;28;20204;-79
2022/07/15 02:58:35;;;;;;;4.72;2.42;;;17.20;99.90;;;;;;4954552;28;20212;-79
2022/07/15 03:01:03;;;;;;;6.35;2.60;;;17.20;99.90;;;;;;4938698;29;20197;-79
2022/07/15 03:03:32;;;;;;;4.45;2.55;;;17.10;99.90;;;;;;4954418;28;20202;-79
2022/07/15 03:06:01;;;;;;;7.70;3.45;;;17.10;99.90;;;;;;4957921;28;20224;-79
2022/07/15 03:08:28;;;;;;;7.03;3.17;;;17.00;99.90;;;;;;4941580;28;20200;-79
2022/07/15 03:10:56;;;;;;;4.93;2.50;;;17.00;99.90;;;;;;4968965;28;20213;-79
2022/07/15 03:13:25;;;;;;;4.60;2.70;;;17.10;99.90;;;;;;4957956;28;20199;-79
2022/07/15 03:15:54;;;;;;;7.32;2.92;;;17.00;99.90;;;;;;4961108;28;20208;-79
2022/07/15 03:18:23;;;;;;;6.75;2.72;;;17.10;99.90;;;;;;4962910;28;20205;-79
2022/07/15 03:20:51;;;;;;;5.30;3.03;;;17.00;99.90;;;;;;4959978;28;20189;-79
2022/07/15 03:23:18;;;;;;;7.07;2.70;;;16.80;99.90;;;;;;4962735;28;20205;-79
2022/07/15 03:25:47;;;;;;;6.32;2.63;;;16.80;99.90;;;;;;4955186;28;20571;-79
2022/07/15 03:28:16;;;;;;;5.20;2.60;;;17.00;99.90;;;;;;4961032;28;20200;-79
2022/07/15 03:30:43;;;;;;;8.15;2.97;;;16.90;99.90;;;;;;4960068;28;20232;-79
2022/07/15 03:33:15;;;;;;;4.97;2.50;;;16.80;99.90;;;;;;4960999;28;20212;-79
2022/07/15 03:35:44;;;;;;;4.55;2.75;;;16.90;99.90;;;;;;4951487;28;20202;-79
2022/07/15 03:38:12;;;;;;;6.50;3.10;;;16.90;99.90;;;;;;4960463;28;20201;-79
2022/07/15 03:40:39;;;;;;;6.28;2.67;;;16.90;99.90;;;;;;4960979;28;20209;-79
2022/07/15 03:43:07;;;;;;;4.65;2.60;;;17.00;99.90;;;;;;4960285;28;20197;-79
2022/07/15 03:45:36;;;;;;;3.03;2.30;;;16.80;99.90;;;;;;4962040;28;20212;-79
2022/07/15 03:48:04;;;;;;;3.95;2.08;;;16.80;99.90;;;;;;4978629;28;20563;-79
2022/07/15 03:50:36;;;;;;;6.05;2.72;;;16.70;99.90;;;;;;4960308;28;20201;-79
2022/07/15 03:53:04;;;;;;;4.72;2.65;;;16.50;99.90;;;;;;4951258;28;20202;-79
2022/07/15 03:55:31;;;;;;;5.07;2.90;;;16.70;99.90;;;;;;4960090;28;20201;-79
2022/07/15 03:57:59;;;;;;;5.82;2.88;;;16.60;99.90;;;;;;4965792;28;20229;-79
2022/07/15 04:00:26;;;;;;;5.45;3.08;;;16.70;99.90;;;;;;4960434;28;20209;-80
2022/07/15 04:02:54;;;;;;;5.95;2.85;;;16.60;99.90;;;;;;4983738;28;20200;-82
2022/07/15 04:05:21;;;;;;;4.40;2.25;;;16.40;99.90;;;;;;4975355;28;20209;-82
2022/07/15 04:07:53;;;;;;;3.50;2.53;;;16.40;99.90;;;;;;4959714;28;20569;-82
2022/07/15 04:10:21;;;;;;;6.47;2.85;;;16.20;99.90;;;;;;4967805;28;20204;-82
2022/07/15 04:12:49;;;;;;;7.03;2.63;;;16.30;99.90;;;;;;4966891;28;20569;-82
2022/07/15 04:15:16;;;;;;;3.53;2.53;;;16.30;99.90;;;;;;4965462;28;20220;-82
2022/07/15 04:17:47;;;;;;;7.13;2.97;;;16.40;99.90;;;;;;4964043;28;20221;-82
2022/07/15 04:20:18;;;;;;;6.50;2.60;;;16.40;99.90;;;;;;4960135;28;20205;-82
2022/07/15 04:22:48;;;;;;;6.57;3.13;;;16.20;99.90;;;;;;4987841;28;20204;-82
2022/07/15 04:25:19;;;;;;;9.30;2.90;;;16.10;99.90;;;;;;4965752;28;20216;-82
2022/07/15 04:27:48;;;;;;;5.65;2.33;;;16.00;99.90;;;;;;4958470;28;20595;-81
2022/07/15 04:30:16;;;;;;;7.88;3.20;;;16.10;99.90;;;;;;4965737;28;20205;-82
2022/07/15 04:32:49;;;;;;;7.05;2.63;;;15.80;99.90;;;;;;4959374;28;20213;-81
2022/07/15 04:35:17;;;;;;;7.70;3.30;;;15.90;99.90;;;;;;4976443;28;20197;-81
2022/07/15 04:37:48;;;;;;;6.55;2.53;;;16.00;99.90;;;;;;4955478;28;20222;-81
2022/07/15 04:40:17;;;;;;;7.93;3.25;;;16.10;99.90;;;;;;4965728;28;20205;-81
2022/07/15 04:42:45;;;;;;;6.55;2.58;;;16.20;99.90;;;;;;4982372;28;20197;-81
2022/07/15 04:45:15;;;;;;;4.88;2.78;;;16.30;99.90;;;;;;4964314;28;20213;-81
2022/07/15 04:47:43;;;;;;;7.15;3.42;;;16.30;99.90;;;;;;4962775;28;20214;-81
2022/07/15 04:53:01;;;;;;;5.75;3.10;;;16.30;99.90;;;;;;4989213;28;20683;-81
2022/07/15 04:55:29;;;;;;;5.03;2.67;;;16.50;99.90;;;;;;4990572;28;20197;-81
2022/07/15 04:58:03;;;;;;;4.63;2.70;;;16.70;99.90;;;;;;4989798;28;20200;-84
2022/07/15 05:00:30;;;;;;;4.93;2.55;;;16.70;99.90;;;;;;4979047;28;20207;-85
2022/07/15 05:02:58;;;;;;;5.88;2.72;;;16.80;99.90;;;;;;4984331;28;20682;-84
2022/07/15 05:05:28;;;;;;;5.68;3.33;;;16.90;99.90;;;;;;4956994;28;20201;-81
2022/07/15 05:07:57;;;;;;;5.68;2.65;;;16.90;99.90;;;;;;4969326;28;20583;-81
2022/07/15 05:10:25;;;;;;;7.15;2.65;;;16.90;99.90;;;;;;4957115;28;20208;-83
2022/07/15 05:13:02;;;;;;;5.57;2.60;;;16.90;99.90;;;;;;4960482;28;20220;-81
2022/07/15 05:15:31;;;;;;;5.53;2.92;;;17.00;99.90;;;;;;4966344;28;20201;-81
2022/07/15 05:18:07;;;;;;;8.20;3.03;;;17.00;99.90;;;;;;4966975;28;20248;-82
2022/07/15 05:20:34;;;;;;;6.55;2.65;;;16.90;99.90;;;;;;4961155;28;20205;-81
2022/07/15 05:23:02;;;;;;;5.75;2.70;;;16.90;99.90;;;;;;4960348;28;20197;-81
2022/07/15 05:25:34;;;;;;;6.35;2.50;;;17.10;99.90;;;;;;4960474;28;20205;-81
2022/07/15 05:28:04;;;;;;;5.68;2.30;;;17.00;99.90;;;;;;4960417;28;20197;-82
2022/07/15 05:30:31;;;;;;;5.38;2.40;;;17.10;99.90;;;;;;4982413;28;20202;-82
2022/07/15 05:33:03;;;;;;;5.88;2.70;;;17.20;99.90;;;;;;4960247;28;20225;-81
2022/07/15 05:35:30;;;;;;;6.40;2.58;;;17.30;99.90;;;;;;4965490;28;20197;-81
2022/07/15 05:37:58;;;;;;;7.72;2.92;;;17.40;99.90;;;;;;4975761;28;20209;-81
2022/07/15 05:40:30;;;;;;;8.63;2.17;;;17.60;99.90;;;;;;4960374;28;20205;-81
2022/07/15 05:42:58;;;;;;;4.95;2.50;;;17.40;99.90;;;;;;4975954;28;20189;-82
2022/07/15 05:45:27;;;;;;;8.98;2.47;;;17.40;99.90;;;;;;4990692;28;20204;-84
2022/07/15 05:48:01;;;;;;;6.82;2.35;;;17.40;99.90;;;;;;4983869;28;20218;-84
2022/07/15 05:50:31;;;;;;;7.70;2.40;;;17.40;99.90;;;;;;4993651;28;20193;-85
2022/07/15 05:53:01;;;;;;;4.97;1.85;;;17.50;99.90;;;;;;4987580;28;20224;-83
2022/07/15 05:55:29;;;;;;;8.43;2.67;;;17.50;99.90;;;;;;4963740;28;20208;-81
2022/07/15 05:57:58;;;;;;;6.15;2.75;;;17.60;99.90;;;;;;4968104;28;20562;-82
2022/07/15 06:00:31;;;;;;;5.45;2.20;;;17.70;99.90;;;;;;4965325;28;20207;-86
2022/07/15 06:02:59;;;;;;;4.32;2.00;;;17.70;99.90;;;;;;4957487;29;20202;-81
2022/07/15 06:05:28;;;;;;;5.32;1.80;;;17.80;99.90;;;;;;4941503;29;20213;-82
2022/07/15 06:07:59;;;;;;;6.28;1.90;;;17.80;99.90;;;;;;4939146;29;20222;-82
2022/07/15 06:10:34;;;;;;;5.53;1.92;;;17.70;99.90;;;;;;4947272;28;20200;-81
2022/07/15 06:13:01;;;;;;;6.85;1.98;;;17.70;99.90;;;;;;4958238;28;20375;-81
2022/07/15 06:15:30;;;;;;;6.72;2.85;;;17.80;99.90;;;;;;4958618;28;20193;-82
2022/07/15 06:17:59;;;;;;;5.28;2.00;;;18.00;99.90;;;;;;4958719;28;20719;-82
2022/07/15 06:20:31;;;;;;;5.15;2.88;;;17.70;99.90;;;;;;4959309;28;20197;-85
2022/07/15 06:23:00;;;;;;;6.63;2.20;;;17.70;99.90;;;;;;4959647;28;20197;-84
2022/07/15 06:25:28;;;;;;;7.00;2.50;;;17.90;99.90;;;;;;4958237;28;20197;-81
2022/07/15 06:27:55;;;;;;;6.50;2.55;;;17.90;99.90;;;;;;4965940;28;20235;-81
2022/07/15 06:30:23;;;;;;;5.47;2.13;;;17.90;99.90;;;;;;4959324;28;20213;-82
2022/07/15 06:32:51;;;;;;;5.63;2.47;;;17.90;99.90;;;;;;4974703;28;20220;-81
2022/07/15 06:35:19;;;;;;;4.18;1.52;;;17.90;99.90;;;;;;4959386;28;20204;-82
2022/07/15 06:37:46;;;;;;;4.28;1.48;;;18.10;99.50;;;;;;4977394;28;20592;-81
2022/07/15 06:40:14;;;;;;;5.18;1.67;;;18.40;98.70;;;;;;4957789;28;20205;-81
2022/07/15 06:42:41;;;;;;;6.05;1.88;;;18.30;97.20;;;;;;4959789;28;20200;-82
2022/07/15 06:45:11;;;;;;;4.03;1.55;;;18.30;97.40;;;;;;4959110;28;20193;-81
2022/07/15 06:47:41;;;;;;;6.63;1.30;;;18.00;96.60;;;;;;4959051;28;20212;-81
2022/07/15 06:50:11;;;;;;;4.55;1.38;;;18.10;97.20;;;;;;4975324;28;20675;-83
2022/07/15 06:52:42;;;;;;;5.18;1.55;;;18.10;96.40;;;;;;4958866;28;20216;-82
2022/07/15 06:55:11;;;;;;;4.88;2.22;;;18.00;97.20;;;;;;4959037;28;20200;-83
2022/07/15 06:57:40;;;;;;;3.50;1.52;;;18.40;97.60;;;;;;4954305;28;20232;-81
2022/07/15 07:00:09;;;;;;;4.47;1.70;;;18.60;97.00;;;;;;4983070;28;20193;-82
2022/07/15 07:02:39;;;;;;;5.68;1.55;;;18.70;96.70;;;;;;4958884;28;20201;-81
2022/07/15 07:05:08;;;;;;;2.92;1.25;;;18.70;96.90;;;;;;4976413;28;20202;-82
2022/07/15 07:07:36;;;;;;;5.10;1.80;;;18.70;95.60;;;;;;4958994;28;20714;-81
2022/07/15 07:10:04;;;;;;;5.35;1.27;;;18.70;96.40;;;;;;4958403;28;20201;-82
2022/07/15 07:12:32;;;;;;;4.72;1.65;;;18.90;96.50;;;;;;4949865;28;20549;-82
2022/07/15 07:15:00;;;;;;;7.60;1.50;;;18.90;96.20;;;;;;4977600;28;20200;-81
2022/07/15 07:17:28;;;;;;;4.15;1.38;;;19.00;95.60;;;;;;4975191;28;20240;-83
2022/07/15 07:19:56;;;;;;;4.05;1.00;;;18.90;94.80;;;;;;4991128;28;20402;-81
2022/07/15 07:22:23;;;;;;;5.13;1.30;;;18.80;94.40;;;;;;4990924;28;20209;-81
2022/07/15 07:24:53;;;;;;;5.55;1.30;;;18.90;94.20;;;;;;4990645;28;20197;-82
2022/07/15 07:27:20;;;;;;;4.95;1.15;;;18.80;94.10;;;;;;4990418;28;20235;-82
2022/07/15 07:29:48;;;;;;;3.60;1.05;;;19.00;94.30;;;;;;4965342;28;20205;-81
2022/07/15 07:32:15;;;;;;;3.35;1.00;;;18.90;94.30;;;;;;4959280;28;20208;-82
2022/07/15 07:34:42;;;;;;;4.07;1.15;;;19.10;94.50;;;;;;4974861;28;20224;-82
2022/07/15 07:37:10;;;;;;;2.92;1.20;;;19.30;94.30;;;;;;4957737;28;20730;-81
2022/07/15 07:39:37;;;;;;;4.75;1.33;;;19.30;94.20;;;;;;4953337;28;20281;-81
2022/07/15 07:42:06;;;;;;;5.78;2.13;;;19.10;94.80;;;;;;4974833;28;20194;-81
2022/07/15 07:44:34;;;;;;;4.05;1.25;;;18.90;95.40;;;;;;4956096;28;20209;-81
2022/07/15 07:47:01;;;;;;;4.80;1.50;;;19.20;95.10;;;;;;4958510;28;20229;-81
2022/07/15 07:49:29;;;;;;;5.43;1.67;;;19.20;95.00;;;;;;4975879;28;20204;-82
2022/07/15 07:51:57;;;;;;;4.88;1.40;;;19.00;95.00;;;;;;4974118;28;20204;-81
2022/07/15 07:54:24;;;;;;;4.68;1.60;;;18.80;95.70;;;;;;4956600;28;20229;-81
2022/07/15 07:56:51;;;;;;;4.60;1.50;;;18.70;96.00;;;;;;4959054;28;20224;-81
2022/07/15 07:59:21;;;;;;;5.05;1.30;;;18.40;96.30;;;;;;4966630;28;20205;-83
2022/07/15 08:01:49;;;;;;;7.38;1.70;;;18.50;96.80;;;;;;4965424;28;20208;-81
2022/07/15 08:04:16;;;;;;;3.05;1.27;;;18.50;97.00;;;;;;4978297;28;20201;-81
2022/07/15 08:06:44;;;;;;;5.63;1.60;;;18.70;96.70;;;;;;4969307;28;20221;-82
2022/07/15 08:09:11;;;;;;;6.68;1.33;;;19.00;95.70;;;;;;4961076;28;20201;-82
2022/07/15 08:11:39;;;;;;;7.05;1.67;;;19.10;95.50;;;;;;4968310;28;20197;-81
2022/07/15 08:14:06;;;;;;;7.05;1.58;;;19.20;95.40;;;;;;4960524;28;20217;-82
2022/07/15 08:16:35;;;;;;;8.10;1.88;;;18.90;95.50;;;;;;4957586;28;20225;-84
2022/07/15 08:19:03;;;;;;;4.35;1.23;;;19.30;95.50;;;;;;4971140;28;20584;-81
2022/07/15 08:21:30;;;;;;;6.82;1.77;;;19.60;95.10;;;;;;4968604;28;20212;-82
2022/07/15 08:23:58;;;;;;;6.00;1.60;;;19.30;95.00;;;;;;4975219;28;20577;-81
2022/07/15 08:26:25;;;;;;;3.35;1.10;;;19.10;95.30;;;;;;4976963;28;20719;-81
2022/07/15 08:28:53;;;;;;;4.97;1.80;;;19.30;95.10;;;;;;4958115;28;20197;-82
2022/07/15 08:31:20;;;;;;;3.65;1.52;;;19.50;95.10;;;;;;4961213;28;20667;-82
2022/07/15 08:33:49;;;;;;;4.22;1.45;;;19.40;94.80;;;;;;4959809;28;20225;-82
2022/07/15 08:36:17;;;;;;;5.55;1.65;;;19.20;95.00;;;;;;4957375;28;20225;-81
2022/07/15 08:38:44;;;;;;;3.67;1.83;;;19.30;95.20;;;;;;4966662;28;20212;-82
2022/07/15 08:41:12;;;;;;;2.83;1.20;;;19.40;94.50;;;;;;4959758;28;20201;-83
2022/07/15 08:43:40;;;;;;;5.93;1.52;;;19.30;93.50;;;;;;4964430;28;20193;-83
2022/07/15 08:46:09;;;;;;;2.78;1.30;;;18.90;94.00;;;;;;4977474;28;20232;-83
2022/07/15 08:48:38;;;;;;;2.60;1.30;;;18.90;94.40;;;;;;4948944;28;20206;-83
2022/07/15 08:51:08;;;;;;;3.75;1.25;;;18.90;94.60;;;;;;4941711;29;20208;-82
2022/07/15 08:53:35;;;;;;;3.08;1.20;;;18.90;94.90;;;;;;4958904;28;20214;-81
2022/07/15 08:56:03;;;;;;;5.38;1.95;;;19.10;94.90;;;;;;4941525;29;20222;-82
2022/07/15 08:58:33;;;;;;;2.88;1.00;;;19.30;94.80;;;;;;4940939;28;20213;-82
2022/07/15 09:01:00;;;;;;;4.55;1.02;;;18.90;92.40;;;;;;4961780;28;20193;-81
2022/07/15 09:03:28;;;;;;;3.92;1.20;;;18.70;93.10;;;;;;4972012;28;20197;-81
2022/07/15 09:05:55;;;;;;;4.55;1.25;;;19.00;92.90;;;;;;4952846;28;20207;-82
2022/07/15 09:08:24;;;;;;;3.40;1.42;;;19.00;92.30;;;;;;4992795;28;20201;-81
2022/07/15 09:10:54;;;;;;;2.95;1.15;;;19.30;91.40;;;;;;4992506;28;20197;-82
2022/07/15 09:13:28;;;;;;;3.80;1.00;;;19.30;91.80;;;;;;4976322;28;20204;-81
2022/07/15 09:15:57;;;;;;;3.10;1.15;;;19.30;92.00;;;;;;4982277;28;20202;-82
2022/07/15 09:18:27;;;;;;;2.80;1.10;;;19.10;92.30;;;;;;4960639;28;20201;-81
2022/07/15 09:20:54;;;;;;;3.33;1.02;;;18.90;92.90;;;;;;4977758;28;20193;-82
2022/07/15 09:23:30;;;;;;;3.83;1.35;;;18.80;93.30;;;;;;4959706;28;20197;-82
2022/07/15 09:25:59;;;;;;;3.40;1.20;;;18.80;93.40;;;;;;4960068;28;20201;-83
2022/07/15 09:28:38;;;;;;;2.92;0.88;;;18.90;93.80;;;;;;4959981;28;20205;-81
2022/07/15 09:33:58;;;;;;;5.05;1.00;;;19.30;92.10;;;;;;4967725;28;20217;-83
2022/07/15 09:36:27;;;;;;;2.53;1.08;;;19.50;91.10;;;;;;4992108;28;20220;-82
2022/07/15 09:38:58;;;;;;;3.08;1.40;;;19.40;90.60;;;;;;4975683;28;20208;-81
2022/07/15 09:41:32;;;;;;;2.25;1.30;;;19.70;91.00;;;;;;4977168;28;20193;-81
2022/07/15 09:44:03;;;;;;;3.20;1.20;;;19.80;90.70;;;;;;4991658;28;20189;-81
2022/07/15 09:46:42;;;;;;;2.50;1.13;;;19.80;90.00;;;;;;4975883;28;20221;-81
2022/07/15 09:49:10;;;;;;;7.13;1.40;;;19.70;90.10;;;;;;4975315;28;20193;-81
2022/07/15 09:51:49;;;;;;;4.53;1.17;;;19.70;90.70;;;;;;4958539;28;20212;-81
2022/07/15 09:54:18;;;;;;;4.78;1.40;;;19.80;90.30;;;;;;4959770;28;20218;-82
2022/07/15 09:56:47;;;;;;;2.65;1.10;;;20.00;88.80;;;;;;4959187;28;21130;-83
2022/07/15 09:59:14;;;;;;;2.35;1.00;;;19.70;87.20;;;;;;4959448;28;20205;-83
2022/07/15 10:01:42;;;;;;;5.57;1.55;;;19.60;87.70;;;;;;4959178;28;20208;-84
2022/07/15 10:04:11;;;;;;;2.08;0.88;;;19.70;89.50;;;;;;4975908;28;20189;-81
2022/07/15 10:06:39;;;;;;;3.38;1.38;;;19.90;90.10;;;;;;4970975;28;20226;-83
2022/07/15 10:09:07;;;;;;;3.72;1.25;;;20.20;90.00;;;;;;4981622;28;20205;-82
2022/07/15 10:11:42;;;;;;;3.50;1.05;;;20.00;89.70;;;;;;4959955;28;20197;-82
2022/07/15 10:14:38;;;;;;;2.60;0.90;;;20.10;89.30;;;;;;4959671;28;20575;-82
2022/07/15 10:17:32;;;;;;;3.40;1.25;;;20.10;88.50;;;;;;4924372;28;20559;-81
2022/07/15 10:20:27;;;;;;;1.90;0.98;;;20.30;87.00;;;;;;4976913;28;20193;-82
2022/07/15 10:23:00;;;;;;;3.60;1.15;;;20.70;88.50;;;;;;4931196;28;20205;-82
2022/07/15 10:25:51;;;;;;;3.67;1.02;;;20.90;87.30;;;;;;4976046;28;20197;-82
2022/07/15 10:28:32;;;;;;;3.00;1.15;;;20.60;87.70;;;;;;4956167;28;20659;-82
2022/07/15 10:31:18;;;;;;;2.72;1.20;;;20.50;88.50;;;;;;4976821;28;20186;-82
2022/07/15 10:34:16;;;;;;;4.53;1.27;;;20.20;90.10;;;;;;4956775;28;20602;-82
2022/07/15 10:37:00;;;;;;;1.92;1.13;;;20.10;89.90;;;;;;4972504;28;20209;-81
2022/07/15 10:39:29;;;;;;;2.42;1.05;;;20.00;90.00;;;;;;4991171;28;20218;-82
2022/07/15 10:41:58;;;;;;;4.35;1.30;;;20.00;88.30;;;;;;4990849;28;20205;-82
2022/07/15 10:44:29;;;;;;;2.80;1.42;;;20.10;88.00;;;;;;4974488;28;20201;-82
2022/07/15 10:47:19;;;;;;;3.47;1.40;;;20.10;89.30;;;;;;4975083;28;20239;-82
2022/07/15 10:49:48;;;;;;;3.25;1.20;;;20.20;90.00;;;;;;4967772;28;20206;-82
2022/07/15 10:52:17;;;;;;;3.47;1.50;;;20.20;89.90;;;;;;4967483;28;20219;-83
2022/07/15 10:54:47;;;;;;;2.63;1.30;;;20.40;90.20;;;;;;4972571;28;20206;-82
2022/07/15 10:57:19;;;;;;;2.03;1.05;;;20.20;90.40;;;;;;4970832;28;20225;-82
2022/07/15 10:59:56;;;;;;;3.28;1.52;;;20.20;90.70;;;;;;4973180;28;20196;-82
2022/07/15 11:02:26;;;;;;;6.45;1.67;;;20.10;90.30;;;;;;4955616;28;20204;-83
2022/07/15 11:05:20;;;;;;;4.35;1.60;;;20.40;90.70;;;;;;4955914;28;20201;-82
2022/07/15 11:07:47;;;;;;;2.42;1.13;;;20.70;90.00;;;;;;4955381;28;20217;-81
2022/07/15 11:10:21;;;;;;;4.05;1.27;;;20.60;89.80;;;;;;4966199;28;20208;-81
2022/07/15 11:13:05;;;;;;;3.55;1.70;;;20.40;88.90;;;;;;4969803;28;20202;-81
2022/07/15 11:15:36;;;;;;;3.10;1.27;;;20.30;88.80;;;;;;4973069;28;20205;-82
2022/07/15 11:18:04;;;;;;;2.50;0.90;;;20.50;88.40;;;;;;4975207;28;20236;-82
2022/07/15 11:20:34;;;;;;;1.60;0.90;;;20.50;88.00;;;;;;4956234;28;20209;-85
2022/07/15 11:23:05;;;;;;;3.08;0.98;;;20.60;87.50;;;;;;4973979;28;20208;-82
2022/07/15 11:25:34;;;;;;;2.58;0.90;;;20.90;86.30;;;;;;4956446;28;20204;-82
2022/07/15 11:28:06;;;;;;;3.30;1.02;;;21.10;85.80;;;;;;4957922;28;20240;-82
2022/07/15 11:30:39;;;;;;;1.98;0.88;;;21.10;85.00;;;;;;4974694;28;20197;-80
2022/07/15 11:33:08;;;;;;;2.95;1.00;;;21.20;84.40;;;;;;4957773;28;20201;-80
2022/07/15 11:35:47;;;;;;;2.08;0.80;;;21.20;82.90;;;;;;4960030;28;20225;-80
2022/07/15 11:38:15;;;;;;;3.60;0.93;;;21.00;80.90;;;;;;4952181;28;20568;-81
2022/07/15 11:46:26;;;;;;;2.28;1.13;;;21.20;80.50;;;;;;4973656;28;20224;-80
2022/07/15 11:48:53;;;;;;;1.40;0.60;;;21.50;78.80;;;;;;4978088;28;20204;-81
2022/07/15 11:51:27;;;;;;;1.45;0.88;;;21.50;78.10;;;;;;4960163;28;20224;-81
2022/07/15 11:53:55;;;;;;;1.35;0.70;;;21.30;77.90;;;;;;4991079;28;20561;-81
2022/07/15 11:56:22;;;;;;;1.77;1.13;;;21.10;79.20;;;;;;4964098;28;20229;-81
2022/07/15 11:58:59;;;;;;;3.58;0.70;;;21.20;80.10;;;;;;4964661;28;20209;-81
2022/07/15 12:01:29;;;;;;;2.75;0.70;;;20.90;78.70;;;;;;4961481;28;20205;-81
2022/07/15 12:03:59;;;;;;;1.98;1.00;;;20.70;79.80;;;;;;4961100;28;20566;-81
2022/07/15 12:06:29;;;;;;;2.55;0.90;;;21.00;80.20;;;;;;4958152;28;20228;-81
2022/07/15 12:08:58;;;;;;;2.88;1.00;;;21.30;80.80;;;;;;4963727;28;20208;-81
2022/07/15 12:11:33;;;;;;;2.00;0.73;;;21.80;78.00;;;;;;4963308;28;20209;-81
2022/07/15 12:14:02;;;;;;;1.90;1.00;;;22.20;74.20;;;;;;4959607;28;20216;-81
2022/07/15 12:16:34;;;;;;;3.15;0.73;;;22.40;72.30;;;;;;4959509;28;20244;-81
2022/07/15 12:19:04;;;;;;;1.17;0.50;;;22.50;70.30;;;;;;4954284;28;20216;-81
2022/07/15 12:21:32;;;;;;;1.45;0.65;;;22.30;69.40;;;;;;4977371;28;20204;-81
2022/07/15 12:24:01;;;;;;;1.70;0.70;;;22.40;65.00;;;;;;4979229;28;20205;-81
2022/07/15 12:26:29;;;;;;;2.35;0.60;;;22.40;65.60;;;;;;4977025;28;20219;-81
2022/07/15 12:28:57;;;;;;;1.70;0.63;;;22.50;66.00;;;;;;4972755;28;20211;-81
2022/07/15 12:31:28;;;;;;;4.18;1.00;;;22.30;67.70;;;;;;4976146;28;20205;-81
2022/07/15 12:33:57;;;;;;;3.00;0.80;;;22.00;67.60;;;;;;4955692;28;20204;-81
2022/07/15 12:36:26;;;;;;;1.42;0.70;;;21.80;67.80;;;;;;4977201;28;20228;-81
2022/07/15 12:39:18;;;;;;;1.73;0.50;;;21.70;67.60;;;;;;4958447;28;20237;-81
2022/07/15 12:41:58;;;;;;;2.33;0.80;;;21.70;69.20;;;;;;4979703;28;20202;-81
2022/07/15 12:44:25;;;;;;;2.72;0.90;;;22.00;67.50;;;;;;4960868;28;20200;-81
2022/07/15 12:46:57;;;;;;;2.00;1.05;;;22.00;67.70;;;;;;4959436;28;20233;-81
2022/07/15 12:49:48;;;;;;;2.47;0.93;;;21.70;66.30;;;;;;4956485;28;20209;-81
2022/07/15 12:52:31;;;;;;;1.35;0.80;;;21.60;66.70;;;;;;4957404;28;20224;-81
2022/07/15 12:55:00;;;;;;;1.88;0.77;;;21.60;67.50;;;;;;4975963;28;20201;-81
2022/07/15 12:57:31;;;;;;;1.13;0.57;;;21.60;67.10;;;;;;4969653;28;20228;-81
2022/07/15 13:00:00;;;;;;;1.70;0.70;;;21.70;68.00;;;;;;4963558;28;20205;-84
2022/07/15 13:02:29;;;;;;;0.90;0.68;;;22.20;66.10;;;;;;4977394;28;20212;-86
2022/07/15 13:04:57;;;;;;;0.90;0.70;;;22.60;65.80;;;;;;4963935;28;20201;-85
2022/07/15 13:07:25;;;;;;;2.63;0.70;;;23.00;63.00;;;;;;4974373;28;20229;-85
2022/07/15 13:09:53;;;;;;;1.50;0.60;;;23.20;59.90;;;;;;4985998;28;20211;-85
2022/07/15 13:12:21;;;;;;;1.05;0.70;;;23.20;59.80;;;;;;4992636;28;20211;-85
2022/07/15 13:14:48;;;;;;;1.70;0.40;;;22.90;55.90;;;;;;4996096;28;20215;-85
2022/07/15 13:17:15;;;;;;;1.52;0.50;;;23.20;56.80;;;;;;4989005;28;20235;-85